Time;durP1;ratioP1;P1;durP2;ratioP2;P2;SDS_P1;SDS_P2;PMS_P1;PMS_P2;Temp;Humidity;BMP_temperature;BMP_pressure;BME280_temperature;BME280_humidity;BME280_pressure;Samples;Min_cycle;Max_cycle;Signal;HPM_P1;HPM_P2
2024/01/31 00:02:57;;;;;;;42.97;25.70;;;;;;;5.25;100.00;102928.06;10546603;28;20050;-78
2024/01/31 00:07:57;;;;;;;43.47;24.55;;;;;;;5.20;100.00;102915.41;10545921;28;20177;-78
2024/01/31 00:12:58;;;;;;;39.08;29.35;;;;;;;5.18;100.00;102925.63;10544852;28;20115;-79
2024/01/31 00:17:59;;;;;;;44.58;28.52;;;;;;;5.18;100.00;102924.72;10545346;28;20131;-78
2024/01/31 00:22:59;;;;;;;41.95;29.75;;;;;;;5.22;100.00;102935.56;10541367;28;20217;-77
2024/01/31 00:28:00;;;;;;;42.47;30.73;;;;;;;5.24;100.00;102930.53;10511664;28;20039;-78
2024/01/31 00:33:00;;;;;;;45.35;28.23;;;;;;;5.23;100.00;102923.50;10510010;28;20122;-79
2024/01/31 00:38:01;;;;;;;44.85;30.00;;;;;;;5.24;100.00;102930.53;10524749;28;20162;-79
2024/01/31 00:43:01;;;;;;;41.22;27.23;;;;;;;5.22;100.00;102940.75;10525746;28;20503;-77
2024/01/31 00:48:02;;;;;;;53.38;30.95;;;;;;;5.21;100.00;102938.00;10515205;28;20130;-79
2024/01/31 00:53:03;;;;;;;38.97;27.38;;;;;;;5.18;100.00;102940.28;10514190;28;20044;-78
2024/01/31 00:58:03;;;;;;;52.15;31.65;;;;;;;5.16;100.00;102958.28;10543155;28;20048;-79
2024/01/31 01:03:04;;;;;;;50.08;31.40;;;;;;;5.15;100.00;102961.66;10543675;28;20083;-79
2024/01/31 01:08:05;;;;;;;41.30;28.30;;;;;;;5.16;100.00;102959.97;10506873;28;20036;-78
2024/01/31 01:13:06;;;;;;;48.78;31.52;;;;;;;5.14;100.00;102975.38;10540900;28;20093;-79
2024/01/31 01:18:07;;;;;;;47.60;32.53;;;;;;;5.14;100.00;102973.72;10507975;28;20487;-78
2024/01/31 01:23:07;;;;;;;54.30;32.90;;;;;;;5.14;100.00;102976.31;10549030;28;20225;-78
2024/01/31 01:28:08;;;;;;;48.67;31.50;;;;;;;5.14;100.00;102971.13;10505476;28;20173;-78
2024/01/31 01:33:08;;;;;;;52.63;31.88;;;;;;;5.13;100.00;102990.06;10505673;28;20167;-81
2024/01/31 01:38:09;;;;;;;50.35;33.67;;;;;;;5.13;100.00;102994.31;10542768;28;20219;-78
2024/01/31 01:43:17;;;;;;;44.70;28.10;;;;;;;5.25;100.00;103003.38;10505483;28;20063;-79
2024/01/31 01:48:17;;;;;;;38.65;23.60;;;;;;;5.24;100.00;103000.63;10530950;28;20520;-79
2024/01/31 01:53:18;;;;;;;40.80;20.25;;;;;;;5.10;100.00;102992.34;10548724;28;20039;-79
2024/01/31 01:58:18;;;;;;;24.90;14.43;;;;;;;4.97;100.00;102984.94;10548316;28;20049;-79
2024/01/31 02:03:19;;;;;;;21.60;11.75;;;;;;;4.89;100.00;102993.59;10547282;28;20158;-79
2024/01/31 02:08:19;;;;;;;16.38;10.27;;;;;;;4.85;100.00;102986.25;10530404;28;20048;-79
2024/01/31 02:13:20;;;;;;;20.63;11.63;;;;;;;4.72;100.00;102988.31;10530193;28;20122;-79
2024/01/31 02:18:21;;;;;;;17.17;9.10;;;;;;;4.70;100.00;102985.56;10530017;28;20156;-79
2024/01/31 02:23:22;;;;;;;20.67;9.93;;;;;;;4.65;100.00;102978.97;10529029;28;20433;-79
2024/01/31 02:28:22;;;;;;;15.73;9.90;;;;;;;4.59;100.00;102979.22;10530882;28;20082;-80
2024/01/31 02:33:23;;;;;;;18.50;8.95;;;;;;;4.53;100.00;102992.47;10564316;28;20042;-79
2024/01/31 02:38:23;;;;;;;14.55;9.55;;;;;;;4.49;100.00;102992.91;10529022;28;20048;-79
2024/01/31 02:43:24;;;;;;;14.40;7.00;;;;;;;4.48;100.00;102990.13;10546265;28;20154;-79
2024/01/31 02:48:24;;;;;;;26.98;7.93;;;;;;;4.46;100.00;102990.00;10543940;28;20122;-78
2024/01/31 02:53:26;;;;;;;17.10;6.25;;;;;;;4.44;100.00;102983.72;10494318;28;20106;-78
2024/01/31 02:58:27;;;;;;;13.60;7.05;;;;;;;4.37;100.00;102982.13;10542239;28;20039;-78
2024/01/31 03:03:27;;;;;;;23.55;7.43;;;;;;;4.34;100.00;102980.91;10536418;28;20127;-79
2024/01/31 03:08:28;;;;;;;11.23;5.53;;;;;;;4.33;100.00;102981.66;10524702;28;20124;-80
2024/01/31 03:13:28;;;;;;;18.38;9.23;;;;;;;4.30;100.00;102977.03;10530547;28;20149;-79
2024/01/31 03:18:29;;;;;;;14.32;8.25;;;;;;;4.28;100.00;102978.56;10523843;28;20067;-80
2024/01/31 03:23:29;;;;;;;13.77;6.63;;;;;;;4.29;100.00;102987.28;10548204;28;20123;-79
2024/01/31 03:28:30;;;;;;;14.48;7.60;;;;;;;4.25;100.00;102988.59;10539987;28;20135;-78
2024/01/31 03:33:30;;;;;;;20.13;7.85;;;;;;;4.22;100.00;102993.44;10527066;28;20126;-78
2024/01/31 03:38:31;;;;;;;13.77;5.85;;;;;;;4.21;100.00;102992.56;10533192;28;20574;-78
2024/01/31 03:43:31;;;;;;;12.95;7.30;;;;;;;4.18;100.00;102984.44;10552876;28;20035;-78
2024/01/31 03:48:32;;;;;;;16.77;7.50;;;;;;;4.16;100.00;102977.25;10549860;28;20051;-79
2024/01/31 03:53:32;;;;;;;12.60;5.80;;;;;;;4.15;100.00;102968.56;10509511;28;20035;-78
2024/01/31 03:58:33;;;;;;;15.57;7.03;;;;;;;4.11;100.00;102962.13;10501483;28;20118;-78
2024/01/31 04:03:33;;;;;;;12.75;6.82;;;;;;;4.11;100.00;102971.56;10535555;28;20163;-77
2024/01/31 04:08:34;;;;;;;14.20;7.35;;;;;;;4.08;100.00;102950.50;10494890;28;20062;-78
2024/01/31 04:13:34;;;;;;;12.90;7.65;;;;;;;4.09;100.00;102953.25;10505874;28;20063;-78
2024/01/31 04:18:35;;;;;;;14.23;7.18;;;;;;;4.05;100.00;102951.09;10548882;28;20044;-78
2024/01/31 04:23:36;;;;;;;19.25;8.25;;;;;;;4.07;100.00;102951.25;10525897;28;20110;-78
2024/01/31 04:28:37;;;;;;;15.73;7.15;;;;;;;4.04;100.00;102957.03;10530102;28;20028;-78
2024/01/31 04:33:37;;;;;;;19.50;5.72;;;;;;;3.97;100.00;102962.28;10544817;28;20146;-78
2024/01/31 04:38:38;;;;;;;12.75;5.75;;;;;;;3.96;100.00;102956.22;10552529;28;20130;-78
2024/01/31 04:43:40;;;;;;;13.90;6.57;;;;;;;4.00;100.00;102957.44;10550742;28;20131;-77
2024/01/31 04:48:41;;;;;;;14.55;7.05;;;;;;;3.97;100.00;102964.88;10518889;28;20551;-77
2024/01/31 04:53:41;;;;;;;14.55;6.55;;;;;;;3.93;100.00;102947.19;10568413;28;20042;-77
2024/01/31 04:58:42;;;;;;;11.95;5.63;;;;;;;3.92;100.00;102941.09;10550168;28;20404;-77
2024/01/31 05:03:42;;;;;;;13.90;6.78;;;;;;;3.94;100.00;102943.81;10550174;28;20043;-77
2024/01/31 05:08:43;;;;;;;10.45;6.45;;;;;;;3.91;100.00;102946.09;10549175;28;20122;-78
2024/01/31 05:13:43;;;;;;;10.95;7.10;;;;;;;3.88;100.00;102946.69;10567768;28;20078;-77
2024/01/31 05:18:44;;;;;;;12.15;6.18;;;;;;;3.87;100.00;102939.69;10549314;28;20058;-77
2024/01/31 05:23:44;;;;;;;13.93;4.95;;;;;;;3.91;100.00;102948.69;10548395;28;20477;-77
2024/01/31 05:28:45;;;;;;;11.70;7.03;;;;;;;3.88;100.00;102940.56;10567346;28;20118;-77
2024/01/31 05:33:46;;;;;;;20.67;9.90;;;;;;;3.90;100.00;102955.56;10547425;28;20484;-78
2024/01/31 05:38:46;;;;;;;15.88;6.47;;;;;;;3.87;100.00;102951.69;10567260;28;20126;-79
2024/01/31 05:43:47;;;;;;;19.30;8.82;;;;;;;3.83;100.00;102968.59;10547306;28;20134;-78
2024/01/31 05:48:47;;;;;;;13.93;6.10;;;;;;;3.79;100.00;102956.97;10560936;28;20132;-78
2024/01/31 05:53:48;;;;;;;14.52;6.68;;;;;;;3.80;100.00;102956.22;10552438;28;20073;-78
2024/01/31 05:58:48;;;;;;;13.93;6.93;;;;;;;3.78;100.00;102938.69;10563270;28;20039;-80
2024/01/31 06:03:49;;;;;;;12.82;6.47;;;;;;;3.82;100.00;102944.34;10522160;28;20505;-79
2024/01/31 06:08:49;;;;;;;19.58;9.02;;;;;;;3.77;100.00;102952.38;10543348;28;20177;-80
2024/01/31 06:13:50;;;;;;;18.95;8.23;;;;;;;3.81;100.00;102955.47;10551118;28;20040;-79
2024/01/31 06:18:51;;;;;;;10.88;6.65;;;;;;;3.81;100.00;102951.97;10552027;27;20032;-80
2024/01/31 06:23:51;;;;;;;16.77;7.25;;;;;;;3.77;100.00;102949.78;10545260;28;20097;-80
2024/01/31 06:28:52;;;;;;;22.08;9.27;;;;;;;3.73;100.00;102945.03;10560419;28;20179;-79
2024/01/31 06:33:52;;;;;;;22.65;12.73;;;;;;;3.76;100.00;102951.44;10526359;28;20043;-79
2024/01/31 06:38:53;;;;;;;15.95;7.60;;;;;;;3.84;100.00;102961.72;10544884;28;20096;-79
2024/01/31 06:43:53;;;;;;;13.95;7.00;;;;;;;3.80;100.00;102957.91;10552927;28;20130;-79
2024/01/31 06:48:54;;;;;;;17.65;8.63;;;;;;;3.78;100.00;102962.00;10561227;28;20074;-79
2024/01/31 06:53:54;;;;;;;17.08;8.13;;;;;;;3.78;100.00;102949.94;10537300;28;20509;-79
2024/01/31 06:58:56;;;;;;;18.92;7.30;;;;;;;3.76;100.00;102935.00;10547213;28;20035;-79
2024/01/31 07:03:57;;;;;;;15.98;7.68;;;;;;;3.74;100.00;102941.69;10563052;28;20035;-79
2024/01/31 07:08:57;;;;;;;13.82;8.75;;;;;;;3.74;100.00;102939.09;10540197;28;20134;-79
2024/01/31 07:13:58;;;;;;;13.55;8.27;;;;;;;3.73;100.00;102930.38;10551322;28;20118;-79
2024/01/31 07:18:58;;;;;;;18.38;10.15;;;;;;;3.75;100.00;102922.81;10547089;28;20154;-78
2024/01/31 07:23:59;;;;;;;24.05;12.60;;;;;;;3.77;100.00;102929.97;10536626;28;20035;-78
2024/01/31 07:28:59;;;;;;;25.02;12.70;;;;;;;3.77;100.00;102924.78;10553348;28;20082;-80
2024/01/31 07:34:00;;;;;;;16.45;9.75;;;;;;;3.82;100.00;102936.56;10553240;28;20126;-79
2024/01/31 07:39:01;;;;;;;14.00;9.25;;;;;;;3.84;100.00;102947.13;10536151;28;20071;-79
2024/01/31 07:44:03;;;;;;;20.50;12.37;;;;;;;3.89;100.00;102976.09;10556967;28;20138;-79
2024/01/31 07:49:06;;;;;;;21.42;13.07;;;;;;;3.93;100.00;102986.97;10546115;28;20027;-77
2024/01/31 07:54:06;;;;;;;28.40;16.17;;;;;;;3.97;100.00;103001.16;10550544;28;20380;-77
2024/01/31 07:59:07;;;;;;;30.27;14.77;;;;;;;4.00;100.00;102998.00;10567835;27;20127;-78
2024/01/31 08:04:07;;;;;;;29.63;14.55;;;;;;;4.02;100.00;103005.19;10568561;28;20066;-79
2024/01/31 08:09:09;;;;;;;22.50;10.43;;;;;;;4.04;100.00;103001.06;10565100;27;20123;-77
2024/01/31 08:14:09;;;;;;;26.90;11.75;;;;;;;4.06;100.00;103009.03;10550449;28;20068;-77
2024/01/31 08:19:10;;;;;;;15.77;10.20;;;;;;;4.08;100.00;103011.03;10568788;28;20035;-79
2024/01/31 08:24:10;;;;;;;26.38;21.65;;;;;;;4.11;100.00;103003.56;10548402;28;20042;-78
2024/01/31 08:29:11;;;;;;;19.58;12.20;;;;;;;4.15;100.00;102997.06;10550579;28;20039;-78
2024/01/31 08:34:12;;;;;;;19.75;10.75;;;;;;;4.19;100.00;102987.94;10568092;28;20464;-78
2024/01/31 08:39:12;;;;;;;19.15;11.80;;;;;;;4.22;100.00;102994.38;10549034;28;20081;-79
2024/01/31 08:44:13;;;;;;;24.20;13.88;;;;;;;4.28;100.00;103003.56;10568255;28;20459;-78
2024/01/31 08:49:14;;;;;;;16.05;9.35;;;;;;;4.34;100.00;102992.19;10539145;28;20036;-78
2024/01/31 08:54:15;;;;;;;15.00;11.68;;;;;;;4.37;100.00;102983.81;10529928;28;20123;-78
2024/01/31 08:59:17;;;;;;;22.02;11.93;;;;;;;4.45;100.00;102992.41;10541609;28;20074;-78
2024/01/31 09:04:17;;;;;;;19.73;12.68;;;;;;;4.51;100.00;102993.06;10540260;28;20130;-78
2024/01/31 09:09:18;;;;;;;21.30;14.82;;;;;;;4.58;100.00;102992.94;10541977;28;20081;-78
2024/01/31 09:14:18;;;;;;;24.92;13.02;;;;;;;4.64;100.00;102980.63;10504466;28;20112;-78
2024/01/31 09:19:19;;;;;;;21.20;12.82;;;;;;;4.75;100.00;102984.38;10528522;28;20055;-78
2024/01/31 09:24:19;;;;;;;24.20;14.75;;;;;;;4.84;100.00;102972.38;10534091;28;20783;-78
2024/01/31 09:29:20;;;;;;;26.27;15.35;;;;;;;4.96;100.00;102969.22;10509265;28;20040;-78
2024/01/31 09:34:20;;;;;;;27.20;15.93;;;;;;;5.00;100.00;102946.31;10523874;28;20543;-78
2024/01/31 09:39:21;;;;;;;35.15;17.10;;;;;;;5.14;100.00;102927.00;10506411;28;20067;-78
2024/01/31 09:44:22;;;;;;;28.20;18.33;;;;;;;5.29;100.00;102925.03;10546071;28;20534;-79
2024/01/31 09:49:22;;;;;;;31.75;19.50;;;;;;;5.45;100.00;102921.41;10508410;28;20044;-79
2024/01/31 09:54:23;;;;;;;38.60;20.92;;;;;;;5.55;100.00;102895.59;10524007;28;20432;-78
2024/01/31 09:59:26;;;;;;;35.60;22.23;;;;;;;5.74;100.00;102881.84;10540545;28;20147;-79
2024/01/31 10:04:27;;;;;;;29.52;18.63;;;;;;;5.79;100.00;102879.72;10526077;28;20127;-77
2024/01/31 10:09:28;;;;;;;31.42;18.98;;;;;;;5.86;100.00;102851.88;10538686;28;20040;-77
2024/01/31 10:14:28;;;;;;;24.98;16.08;;;;;;;6.06;100.00;102846.84;10507390;28;20055;-77
2024/01/31 10:19:29;;;;;;;25.85;15.55;;;;;;;6.22;100.00;102818.03;10537295;28;20105;-77
2024/01/31 10:24:29;;;;;;;23.30;15.45;;;;;;;6.30;100.00;102799.81;10543011;28;20123;-78
2024/01/31 10:29:30;;;;;;;19.77;14.48;;;;;;;6.44;100.00;102792.44;10530691;28;20055;-78
2024/01/31 10:34:30;;;;;;;24.60;15.43;;;;;;;6.65;100.00;102793.53;10543352;28;20442;-77
2024/01/31 10:39:31;;;;;;;21.42;11.93;;;;;;;6.64;100.00;102796.00;10500485;28;20181;-77
2024/01/31 10:44:39;;;;;;;16.42;10.52;;;;;;;6.63;100.00;102799.38;10507479;28;20040;-78
2024/01/31 10:49:39;;;;;;;17.58;11.13;;;;;;;6.69;100.00;102802.56;10517563;28;20052;-77
2024/01/31 10:54:51;;;;;;;18.08;13.65;;;;;;;6.75;100.00;102821.38;10547808;28;20055;-78
2024/01/31 10:59:52;;;;;;;19.85;11.20;;;;;;;6.75;100.00;102839.56;10528446;28;20044;-77
2024/01/31 11:04:57;;;;;;;15.13;9.55;;;;;;;6.69;100.00;102844.19;10564222;28;20043;-77
2024/01/31 11:09:57;;;;;;;17.52;10.73;;;;;;;6.64;100.00;102848.94;10561608;28;20032;-78
2024/01/31 11:14:59;;;;;;;15.57;10.88;;;;;;;6.53;100.00;102860.00;10528690;28;20122;-77
2024/01/31 11:19:59;;;;;;;14.13;10.73;;;;;;;6.42;100.00;102848.59;10528449;28;20368;-78
2024/01/31 11:25:02;;;;;;;21.50;11.98;;;;;;;6.36;100.00;102859.31;10529378;28;20258;-78
2024/01/31 11:30:05;;;;;;;18.38;11.15;;;;;;;6.30;100.00;102858.72;10546469;28;20560;-78
2024/01/31 11:35:06;;;;;;;20.88;12.27;;;;;;;6.28;100.00;102840.38;10544889;28;20085;-78
2024/01/31 11:40:07;;;;;;;20.27;14.85;;;;;;;6.22;100.00;102834.59;10563826;28;20042;-77
2024/01/31 11:45:07;;;;;;;18.10;10.40;;;;;;;6.20;100.00;102833.50;10544981;28;20044;-77
2024/01/31 11:50:08;;;;;;;16.02;10.35;;;;;;;6.19;100.00;102822.94;10511093;28;20036;-79
2024/01/31 11:55:11;;;;;;;18.05;11.55;;;;;;;6.16;100.00;102810.59;10511585;28;20440;-78
2024/01/31 12:00:12;;;;;;;17.67;12.13;;;;;;;6.14;100.00;102806.91;10531323;28;20123;-78
2024/01/31 12:05:13;;;;;;;19.77;10.32;;;;;;;6.14;100.00;102793.91;10530191;28;20047;-79
2024/01/31 12:10:14;;;;;;;16.00;10.25;;;;;;;6.14;100.00;102789.63;10528450;28;20036;-79
2024/01/31 12:15:15;;;;;;;19.67;10.53;;;;;;;6.11;100.00;102793.63;10544465;28;20468;-78
2024/01/31 12:20:16;;;;;;;7.38;6.22;;;;;;;6.12;100.00;102782.47;10528182;28;20036;-78
2024/01/31 12:25:17;;;;;;;15.45;9.75;;;;;;;6.17;100.00;102776.00;10553298;28;20035;-78
2024/01/31 12:30:17;;;;;;;15.68;8.70;;;;;;;6.22;100.00;102776.44;10510445;28;20434;-78
2024/01/31 12:35:18;;;;;;;10.45;6.97;;;;;;;6.19;100.00;102781.34;10543697;28;20174;-77
2024/01/31 12:40:19;;;;;;;9.68;6.85;;;;;;;6.17;100.00;102766.50;10526725;28;20044;-78
2024/01/31 12:45:19;;;;;;;9.15;5.82;;;;;;;6.20;100.00;102775.38;10521712;28;20123;-77
2024/01/31 12:50:22;;;;;;;6.70;4.35;;;;;;;6.17;100.00;102783.81;10493360;28;20462;-78
2024/01/31 12:55:23;;;;;;;7.15;4.63;;;;;;;6.10;100.00;102773.59;10510770;28;20040;-78
2024/01/31 13:00:23;;;;;;;6.85;4.10;;;;;;;6.09;100.00;102777.88;10492497;28;20127;-78
2024/01/31 13:05:24;;;;;;;8.63;5.50;;;;;;;6.10;100.00;102752.78;10496692;28;20543;-78
2024/01/31 13:10:24;;;;;;;5.90;4.45;;;;;;;6.03;100.00;102759.06;10491092;28;20120;-77
2024/01/31 13:15:25;;;;;;;10.02;4.32;;;;;;;6.02;100.00;102762.44;10536871;28;20039;-77
2024/01/31 13:20:25;;;;;;;10.13;6.15;;;;;;;6.06;100.00;102764.56;10505748;28;20038;-79
2024/01/31 13:25:26;;;;;;;6.22;4.32;;;;;;;6.04;100.00;102765.19;10522326;28;20048;-78
2024/01/31 13:30:26;;;;;;;6.13;4.38;;;;;;;5.98;100.00;102768.06;10497611;28;20127;-77
2024/01/31 13:35:27;;;;;;;6.70;5.22;;;;;;;5.94;100.00;102773.75;10527772;28;20051;-77
2024/01/31 13:40:29;;;;;;;6.93;5.07;;;;;;;5.93;100.00;102759.84;10483473;28;20165;-79
2024/01/31 13:45:29;;;;;;;8.05;5.95;;;;;;;5.94;100.00;102758.16;10487049;28;20040;-78
2024/01/31 13:50:30;;;;;;;8.32;4.72;;;;;;;5.96;100.00;102738.41;10513412;28;20079;-78
2024/01/31 13:55:31;;;;;;;8.38;5.93;;;;;;;5.92;100.00;102746.69;10562512;28;20499;-78
2024/01/31 14:00:31;;;;;;;15.02;5.70;;;;;;;5.92;100.00;102731.09;10544193;28;20085;-78
2024/01/31 14:05:32;;;;;;;8.38;5.68;;;;;;;5.92;100.00;102724.22;10566016;28;20158;-78
2024/01/31 14:10:32;;;;;;;8.27;5.40;;;;;;;5.90;100.00;102711.84;10544196;28;20067;-78
2024/01/31 14:15:33;;;;;;;5.15;4.07;;;;;;;5.86;100.00;102716.75;10565638;28;20051;-78
2024/01/31 14:20:33;;;;;;;6.95;4.00;;;;;;;5.79;100.00;102705.63;10563501;28;20080;-78
2024/01/31 14:25:34;;;;;;;5.70;4.60;;;;;;;5.78;100.00;102698.59;10544985;28;20123;-78
2024/01/31 14:30:34;;;;;;;7.45;5.05;;;;;;;5.77;100.00;102691.56;10543680;28;20126;-77
2024/01/31 14:35:35;;;;;;;6.00;3.42;;;;;;;5.72;100.00;102689.44;10546190;28;20130;-79
2024/01/31 14:40:35;;;;;;;6.47;2.72;;;;;;;5.79;100.00;102687.44;10563765;28;20531;-79
2024/01/31 14:45:36;;;;;;;4.95;3.72;;;;;;;5.75;100.00;102678.41;10564522;28;20123;-78
2024/01/31 14:50:37;;;;;;;4.20;2.97;;;;;;;5.74;100.00;102676.56;10545584;28;20074;-79
2024/01/31 14:55:37;;;;;;;4.43;2.50;;;;;;;5.77;100.00;102673.38;10529580;28;20376;-78
2024/01/31 15:00:37;;;;;;;7.43;2.72;;;;;;;5.84;100.00;102642.03;10545143;28;20147;-79
2024/01/31 15:05:38;;;;;;;4.10;2.53;;;;;;;5.83;100.00;102646.28;10549650;28;20176;-80
2024/01/31 15:10:38;;;;;;;9.73;2.97;;;;;;;5.80;100.00;102635.59;10568906;28;20569;-79
2024/01/31 15:15:40;;;;;;;6.20;2.78;;;;;;;5.73;100.00;102627.97;10548726;28;20122;-79
2024/01/31 15:20:40;;;;;;;2.80;2.20;;;;;;;5.72;100.00;102619.28;10569949;28;20043;-78
2024/01/31 15:25:41;;;;;;;4.35;2.28;;;;;;;5.61;100.00;102621.63;10573206;28;20050;-78
2024/01/31 15:30:42;;;;;;;3.42;2.15;;;;;;;5.52;100.00;102635.53;10574895;27;20049;-77
2024/01/31 15:35:42;;;;;;;6.07;2.47;;;;;;;5.43;100.00;102647.63;10570278;27;20048;-80
2024/01/31 15:40:43;;;;;;;3.65;2.42;;;;;;;5.40;100.00;102668.13;10558705;27;20071;-79
2024/01/31 15:45:44;;;;;;;4.50;2.75;;;;;;;5.36;100.00;102659.13;10567619;28;20431;-80
2024/01/31 15:50:44;;;;;;;4.50;2.67;;;;;;;5.34;100.00;102676.25;10552474;28;20040;-80
2024/01/31 15:55:45;;;;;;;6.32;2.75;;;;;;;5.31;100.00;102668.16;10569797;28;20495;-80
2024/01/31 16:00:45;;;;;;;5.88;3.80;;;;;;;5.17;100.00;102664.19;10570200;28;20114;-80
2024/01/31 16:05:46;;;;;;;5.00;2.92;;;;;;;5.09;100.00;102663.44;10535795;28;20495;-80
2024/01/31 16:10:46;;;;;;;9.13;3.50;;;;;;;5.12;100.00;102662.81;10571323;28;20055;-80
2024/01/31 16:15:48;;;;;;;9.80;4.40;;;;;;;5.07;100.00;102661.44;10549585;28;20053;-80
2024/01/31 16:20:48;;;;;;;6.80;2.50;;;;;;;4.89;100.00;102650.19;10568810;28;20057;-79
2024/01/31 16:25:49;;;;;;;3.53;2.08;;;;;;;4.53;100.00;102646.63;10524391;28;20034;-79
2024/01/31 16:30:55;;;;;;;13.88;7.82;;;;;;;4.20;100.00;102658.00;10568332;28;20069;-81
2024/01/31 16:35:57;;;;;;;10.80;3.63;;;;;;;3.87;100.00;102666.72;10549253;28;20032;-81
2024/01/31 16:40:57;;;;;;;9.68;3.38;;;;;;;3.81;100.00;102656.66;10568333;28;20036;-81
2024/01/31 16:45:58;;;;;;;6.97;3.28;;;;;;;3.80;100.00;102655.72;10549546;28;20118;-80
2024/01/31 16:50:58;;;;;;;3.92;1.92;;;;;;;3.76;100.00;102631.97;10499875;28;20185;-80
2024/01/31 16:55:59;;;;;;;3.55;2.00;;;;;;;3.44;100.00;102621.75;10525235;28;20122;-80
2024/01/31 17:00:59;;;;;;;9.50;3.10;;;;;;;3.11;100.00;102605.41;10507924;28;20052;-79
2024/01/31 17:06:00;;;;;;;8.73;3.05;;;;;;;3.16;100.00;102592.97;10506221;28;20047;-80
2024/01/31 17:11:01;;;;;;;13.65;2.92;;;;;;;3.46;100.00;102589.19;10490272;28;20040;-80
2024/01/31 17:16:02;;;;;;;6.35;3.13;;;;;;;3.67;100.00;102580.13;10505736;28;20036;-80
2024/01/31 17:21:02;;;;;;;4.35;2.15;;;;;;;3.89;100.00;102575.47;10508171;28;20040;-80
2024/01/31 17:26:04;;;;;;;4.85;2.92;;;;;;;4.10;100.00;102561.19;10523307;28;20036;-80
2024/01/31 17:31:04;;;;;;;5.88;3.45;;;;;;;4.21;100.00;102548.38;10523815;28;20040;-78
2024/01/31 17:36:05;;;;;;;4.65;3.08;;;;;;;4.31;100.00;102553.72;10504616;28;20090;-79
2024/01/31 17:41:08;;;;;;;5.82;3.65;;;;;;;4.45;100.00;102530.84;10505144;28;20078;-79
2024/01/31 17:46:17;;;;;;;7.93;3.08;;;;;;;4.49;100.00;102510.59;10489325;28;20040;-78
2024/01/31 17:51:18;;;;;;;6.47;3.75;;;;;;;4.43;100.00;102527.19;10556015;28;20039;-79
2024/01/31 17:56:21;;;;;;;6.13;3.47;;;;;;;4.42;100.00;102521.13;10548101;28;20035;-78
2024/01/31 18:01:22;;;;;;;5.47;3.78;;;;;;;4.58;100.00;102504.47;10565993;28;20039;-80
2024/01/31 18:06:22;;;;;;;6.43;4.22;;;;;;;4.61;100.00;102487.53;10563162;28;20142;-80
2024/01/31 18:11:23;;;;;;;8.70;3.08;;;;;;;4.43;100.00;102490.91;10565595;28;20535;-80
2024/01/31 18:16:23;;;;;;;8.07;4.03;;;;;;;4.31;100.00;102495.81;10529694;28;20139;-78
2024/01/31 18:21:24;;;;;;;9.82;4.00;;;;;;;4.32;100.00;102475.19;10527773;28;20043;-80
2024/01/31 18:26:24;;;;;;;5.60;3.00;;;;;;;4.23;100.00;102484.66;10546973;28;20067;-79
2024/01/31 18:31:25;;;;;;;5.80;3.33;;;;;;;4.24;100.00;102513.34;10544813;28;20122;-80
2024/01/31 18:36:25;;;;;;;11.75;4.25;;;;;;;4.48;100.00;102513.00;10544884;28;20040;-78
2024/01/31 18:41:26;;;;;;;5.47;2.42;;;;;;;4.73;100.00;102495.59;10562353;28;20123;-78
2024/01/31 18:46:26;;;;;;;5.50;3.40;;;;;;;4.83;100.00;102490.53;10547385;28;20139;-77
2024/01/31 18:51:27;;;;;;;5.20;3.47;;;;;;;4.91;100.00;102480.00;10543835;28;20115;-80
2024/01/31 18:56:27;;;;;;;6.50;2.95;;;;;;;4.95;100.00;102477.81;10545422;28;20421;-80
2024/01/31 19:01:33;;;;;;;4.53;3.00;;;;;;;4.99;100.00;102474.75;10520026;28;20076;-82
2024/01/31 19:06:43;;;;;;;3.92;2.60;;;;;;;4.99;100.00;102466.97;10584879;27;20044;-78
2024/01/31 19:11:43;;;;;;;5.28;4.05;;;;;;;5.00;100.00;102455.81;10554343;28;20036;-82
2024/01/31 19:16:44;;;;;;;8.90;4.18;;;;;;;5.10;100.00;102439.47;10571939;28;20149;-81
2024/01/31 19:21:45;;;;;;;6.78;4.43;;;;;;;5.05;100.00;102419.94;10553070;28;20046;-82
2024/01/31 19:26:45;;;;;;;6.60;3.70;;;;;;;4.91;100.00;102421.22;10572019;28;20114;-80
2024/01/31 19:31:46;;;;;;;8.15;4.47;;;;;;;4.76;100.00;102411.97;10552385;28;20074;-80
2024/01/31 19:36:47;;;;;;;5.63;3.30;;;;;;;4.66;100.00;102416.25;10570989;28;20123;-81
2024/01/31 19:41:47;;;;;;;5.85;3.55;;;;;;;4.74;100.00;102392.75;10552734;28;20147;-80
2024/01/31 19:46:57;;;;;;;8.38;4.00;;;;;;;4.79;100.00;102384.66;10552219;28;20127;-79
2024/01/31 19:51:58;;;;;;;6.68;3.70;;;;;;;4.96;100.00;102373.25;10533821;28;20038;-79
2024/01/31 19:56:59;;;;;;;7.05;4.00;;;;;;;5.11;100.00;102367.69;10551436;28;20039;-80
2024/01/31 20:02:00;;;;;;;6.85;4.13;;;;;;;5.13;100.00;102372.28;10568870;28;20479;-80
2024/01/31 20:07:03;;;;;;;6.32;4.38;;;;;;;5.23;100.00;102379.22;10569553;28;20110;-81
2024/01/31 20:12:04;;;;;;;10.57;5.07;;;;;;;5.34;100.00;102389.69;10535190;28;20055;-79
2024/01/31 20:17:04;;;;;;;6.65;4.50;;;;;;;5.41;100.00;102384.31;10551803;28;20403;-80
2024/01/31 20:22:05;;;;;;;10.73;4.68;;;;;;;5.49;100.00;102348.69;10551131;28;20074;-79
2024/01/31 20:27:06;;;;;;;9.15;4.32;;;;;;;5.59;100.00;102331.47;10570467;28;20062;-80
2024/01/31 20:32:06;;;;;;;6.68;4.03;;;;;;;5.58;100.00;102329.63;10526974;28;20039;-80
2024/01/31 20:37:07;;;;;;;7.50;4.95;;;;;;;5.66;100.00;102324.22;10569062;28;20126;-81
2024/01/31 20:42:08;;;;;;;7.00;5.82;;;;;;;5.68;100.00;102308.03;10567618;28;20765;-80
2024/01/31 20:47:08;;;;;;;9.55;5.25;;;;;;;5.71;100.00;102304.78;10569428;28;20122;-79
2024/01/31 20:52:09;;;;;;;10.43;6.15;;;;;;;5.72;100.00;102293.59;10547829;28;20475;-79
2024/01/31 20:57:09;;;;;;;9.55;5.57;;;;;;;5.72;100.00;102293.59;10567979;28;20046;-80
2024/01/31 21:02:10;;;;;;;8.48;5.15;;;;;;;5.78;100.00;102288.06;10567989;28;20127;-79
2024/01/31 21:07:10;;;;;;;9.07;5.75;;;;;;;5.77;100.00;102275.84;10568083;28;20056;-80
2024/01/31 21:12:11;;;;;;;10.95;6.63;;;;;;;5.81;100.00;102257.16;10525716;28;20122;-80
2024/01/31 21:17:12;;;;;;;11.32;4.90;;;;;;;5.84;100.00;102247.03;10566365;28;20529;-79
2024/01/31 21:22:12;;;;;;;7.03;4.57;;;;;;;5.84;100.00;102242.75;10547810;28;20127;-79
2024/01/31 21:27:13;;;;;;;11.32;6.97;;;;;;;5.87;100.00;102250.81;10531898;28;20158;-80
2024/01/31 21:32:13;;;;;;;8.02;5.90;;;;;;;5.91;100.00;102243.28;10531046;28;20065;-80
2024/01/31 21:37:14;;;;;;;10.25;6.80;;;;;;;5.92;100.00;102239.91;10566747;28;20028;-79
2024/01/31 21:42:14;;;;;;;6.82;5.43;;;;;;;5.95;100.00;102237.59;10546946;28;20126;-78
2024/01/31 21:47:15;;;;;;;12.45;6.88;;;;;;;5.91;100.00;102236.41;10530444;28;20123;-82
2024/01/31 21:52:15;;;;;;;11.00;5.47;;;;;;;5.95;100.00;102228.13;10529174;28;20043;-80
2024/01/31 21:57:16;;;;;;;8.13;6.00;;;;;;;5.98;100.00;102235.25;10498616;28;20189;-82
2024/01/31 22:02:18;;;;;;;12.00;5.30;;;;;;;6.05;100.00;102249.75;10525565;28;20353;-81
2024/01/31 22:07:18;;;;;;;13.30;6.55;;;;;;;6.08;100.00;102257.81;10530156;28;20024;-80
2024/01/31 22:12:19;;;;;;;8.55;5.95;;;;;;;6.09;100.00;102250.16;10512694;28;20483;-80
2024/01/31 22:17:20;;;;;;;9.55;5.35;;;;;;;6.16;100.00;102246.41;10500737;28;20040;-81
2024/01/31 22:22:20;;;;;;;7.00;5.25;;;;;;;6.16;100.00;102244.72;10528477;28;20079;-81
2024/01/31 22:27:21;;;;;;;8.90;5.53;;;;;;;6.16;100.00;102244.72;10515277;28;20114;-81
2024/01/31 22:32:21;;;;;;;10.70;6.78;;;;;;;6.12;100.00;102239.13;10493113;28;20472;-80
2024/01/31 22:37:22;;;;;;;7.32;4.53;;;;;;;6.18;100.00;102234.47;10505021;28;20123;-81
2024/01/31 22:42:22;;;;;;;7.38;5.15;;;;;;;6.11;100.00;102240.78;10525329;28;20143;-80
2024/01/31 22:47:23;;;;;;;8.23;4.68;;;;;;;6.13;100.00;102246.16;10518251;28;20458;-79